Time;durP1;ratioP1;P1;durP2;ratioP2;P2;SDS_P1;SDS_P2;PMS_P1;PMS_P2;Temp;Humidity;BMP_temperature;BMP_pressure;BME280_temperature;BME280_humidity;BME280_pressure;Samples;Min_cycle;Max_cycle;Signal;HPM_P1;HPM_P2
2022/05/12 00:02:01;;;;;;;3.40;2.40;;;24.80;55.40;;;;;;4983325;28;20414;-85
2022/05/12 00:04:34;;;;;;;3.30;3.00;;;24.80;55.40;;;;;;4983071;28;20459;-86
2022/05/12 00:06:59;;;;;;;2.67;2.47;;;24.80;55.40;;;;;;4985352;28;20397;-87
2022/05/12 00:09:26;;;;;;;2.57;2.37;;;24.80;55.40;;;;;;4983499;28;20424;-87
2022/05/12 00:11:52;;;;;;;2.97;2.63;;;24.80;55.40;;;;;;4984171;28;20174;-87
2022/05/12 00:14:20;;;;;;;2.60;2.40;;;24.80;55.50;;;;;;4997502;28;20422;-87
2022/05/12 00:16:47;;;;;;;3.50;2.77;;;24.80;55.40;;;;;;5004429;28;20850;-87
2022/05/12 00:19:13;;;;;;;3.10;2.80;;;24.80;55.40;;;;;;5003317;28;20779;-87
2022/05/12 00:21:43;;;;;;;3.33;3.03;;;24.80;55.40;;;;;;5004112;28;20456;-88
2022/05/12 00:24:09;;;;;;;2.50;2.30;;;24.80;55.40;;;;;;5002851;28;20218;-87
2022/05/12 00:26:37;;;;;;;2.87;2.63;;;24.80;55.40;;;;;;5003563;28;20420;-87
2022/05/12 00:29:06;;;;;;;3.30;3.00;;;24.80;55.40;;;;;;5026119;28;20463;-88
2022/05/12 00:31:35;;;;;;;3.10;2.80;;;24.80;55.40;;;;;;4984683;28;20434;-87
2022/05/12 00:34:01;;;;;;;2.47;2.23;;;24.80;55.40;;;;;;5000170;28;20478;-87
2022/05/12 00:36:27;;;;;;;2.90;2.70;;;24.80;55.40;;;;;;4999570;28;20980;-86
2022/05/12 00:38:55;;;;;;;2.50;2.30;;;24.80;55.40;;;;;;4984940;28;20409;-87
2022/05/12 00:41:21;;;;;;;2.47;2.27;;;24.80;55.40;;;;;;4999045;28;20233;-87
2022/05/12 00:43:56;;;;;;;2.57;2.37;;;24.80;55.40;;;;;;4993923;28;20430;-87
2022/05/12 00:46:28;;;;;;;2.60;2.40;;;24.80;55.40;;;;;;5002874;28;20172;-87
2022/05/12 00:49:02;;;;;;;3.00;2.70;;;24.80;55.40;;;;;;5002704;28;20417;-87
2022/05/12 00:51:40;;;;;;;3.00;2.70;;;24.80;55.50;;;;;;5002654;28;20427;-87
2022/05/12 00:54:30;;;;;;;3.20;2.90;;;24.80;55.50;;;;;;5003137;28;20420;-87
2022/05/12 00:56:59;;;;;;;2.77;2.57;;;24.80;55.50;;;;;;5003460;28;20428;-87
2022/05/12 00:59:31;;;;;;;3.10;2.80;;;24.80;55.50;;;;;;5002939;28;20449;-87
2022/05/12 01:01:59;;;;;;;2.97;2.70;;;24.80;55.50;;;;;;4984389;28;20464;-87
2022/05/12 01:04:26;;;;;;;2.80;2.60;;;24.80;55.50;;;;;;4984132;28;20421;-87
2022/05/12 01:06:52;;;;;;;2.60;2.40;;;24.80;55.50;;;;;;4982946;28;20440;-87
2022/05/12 01:09:20;;;;;;;3.13;2.83;;;24.80;55.50;;;;;;4982914;28;20433;-87
2022/05/12 01:11:48;;;;;;;2.60;2.40;;;24.80;55.50;;;;;;4983090;28;20456;-87
2022/05/12 01:14:14;;;;;;;3.43;3.13;;;24.80;55.40;;;;;;4982839;28;20433;-87
2022/05/12 01:16:39;;;;;;;2.83;2.63;;;24.80;55.50;;;;;;4985123;28;20434;-87
2022/05/12 01:19:07;;;;;;;2.97;2.77;;;24.80;55.40;;;;;;4984549;28;20417;-87
2022/05/12 01:21:33;;;;;;;2.67;2.47;;;24.80;55.40;;;;;;4982794;28;20263;-87
2022/05/12 01:24:02;;;;;;;3.03;2.83;;;24.80;55.40;;;;;;4983158;28;20481;-87
2022/05/12 01:26:28;;;;;;;3.30;3.00;;;24.80;55.40;;;;;;4984203;28;20447;-87
2022/05/12 01:28:54;;;;;;;2.90;2.63;;;24.80;55.40;;;;;;4982854;28;20417;-87
2022/05/12 01:31:23;;;;;;;2.77;2.57;;;24.80;55.40;;;;;;4982764;28;20189;-87
2022/05/12 01:33:51;;;;;;;2.60;2.40;;;24.80;55.40;;;;;;4982737;28;20425;-87
2022/05/12 01:36:18;;;;;;;3.00;2.70;;;24.80;55.40;;;;;;4982519;28;20425;-87
2022/05/12 01:38:44;;;;;;;2.87;2.50;;;24.80;55.40;;;;;;4984243;28;20414;-87
2022/05/12 01:41:10;;;;;;;2.70;2.50;;;24.80;55.50;;;;;;4982965;28;20465;-87
2022/05/12 01:43:35;;;;;;;3.23;2.93;;;24.80;56.00;;;;;;4983365;28;20462;-88
2022/05/12 01:46:02;;;;;;;2.67;2.47;;;24.80;55.40;;;;;;4984039;28;20190;-87
2022/05/12 01:48:29;;;;;;;2.90;2.60;;;24.80;55.40;;;;;;4982668;28;20209;-87
2022/05/12 01:50:55;;;;;;;3.07;2.87;;;24.80;55.40;;;;;;4983939;28;20413;-87
2022/05/12 01:53:21;;;;;;;3.23;2.77;;;24.80;55.50;;;;;;4983780;28;20231;-87
2022/05/12 01:55:48;;;;;;;2.30;2.10;;;24.80;55.40;;;;;;4982835;28;20429;-87
2022/05/12 01:58:17;;;;;;;2.93;2.67;;;24.80;55.40;;;;;;4983142;28;20424;-87
2022/05/12 02:00:43;;;;;;;2.37;2.17;;;24.80;55.50;;;;;;4983342;28;20490;-87
2022/05/12 02:03:09;;;;;;;3.20;2.90;;;24.80;55.40;;;;;;4982899;28;20417;-87
2022/05/12 02:05:37;;;;;;;2.80;2.60;;;24.80;55.50;;;;;;4982140;28;20780;-87
2022/05/12 02:08:04;;;;;;;2.90;2.70;;;24.80;55.50;;;;;;4982104;28;20445;-87
2022/05/12 02:10:37;;;;;;;2.80;2.60;;;24.80;55.40;;;;;;4982126;28;20520;-87
2022/05/12 02:13:04;;;;;;;3.00;2.80;;;24.80;55.50;;;;;;4984052;28;20508;-87
2022/05/12 02:15:31;;;;;;;2.90;2.70;;;24.80;55.50;;;;;;4982817;28;20421;-87
2022/05/12 02:17:56;;;;;;;2.67;2.43;;;24.80;55.50;;;;;;4982694;28;20422;-87
2022/05/12 02:20:23;;;;;;;2.50;2.30;;;24.80;55.50;;;;;;4982140;28;20461;-87
2022/05/12 02:22:49;;;;;;;3.43;3.13;;;24.80;55.50;;;;;;4982958;28;20169;-87
2022/05/12 02:25:17;;;;;;;2.63;2.43;;;24.80;55.50;;;;;;4983032;28;20431;-87
2022/05/12 02:27:45;;;;;;;2.50;2.30;;;24.80;55.50;;;;;;4982447;28;20414;-87
2022/05/12 02:30:17;;;;;;;2.57;2.37;;;24.80;55.50;;;;;;4981464;28;20422;-87
2022/05/12 02:32:43;;;;;;;2.70;2.50;;;24.80;55.50;;;;;;4983234;28;20394;-87
2022/05/12 02:35:10;;;;;;;2.93;2.63;;;24.80;55.50;;;;;;4982167;28;20439;-87
2022/05/12 02:37:35;;;;;;;2.97;2.50;;;24.80;55.50;;;;;;4982199;28;20196;-87
2022/05/12 02:40:01;;;;;;;2.90;2.70;;;24.80;55.50;;;;;;4982472;28;20464;-87
2022/05/12 02:42:27;;;;;;;2.80;2.60;;;24.80;55.50;;;;;;4983196;28;20178;-88
2022/05/12 02:44:53;;;;;;;2.60;2.40;;;24.80;55.50;;;;;;4982095;28;20189;-87
2022/05/12 02:47:19;;;;;;;2.40;2.20;;;24.80;55.50;;;;;;4982884;28;20201;-87
2022/05/12 02:49:45;;;;;;;2.53;2.33;;;24.80;55.50;;;;;;4981950;28;20182;-87
2022/05/12 02:52:11;;;;;;;2.50;2.30;;;24.80;55.50;;;;;;4982892;28;20813;-87
2022/05/12 02:54:37;;;;;;;2.47;2.27;;;24.80;55.50;;;;;;4981748;28;20196;-87
2022/05/12 02:57:03;;;;;;;2.97;2.63;;;24.80;55.50;;;;;;4989626;28;20605;-87
2022/05/12 02:59:30;;;;;;;2.77;2.57;;;24.80;55.50;;;;;;5001627;28;20424;-87
2022/05/12 03:01:57;;;;;;;3.23;2.73;;;24.80;55.50;;;;;;5001538;28;20454;-87
2022/05/12 03:04:23;;;;;;;2.23;2.03;;;24.80;55.50;;;;;;5001298;28;20416;-88
2022/05/12 03:06:48;;;;;;;2.33;2.13;;;24.80;55.50;;;;;;5000997;28;20457;-87
2022/05/12 03:09:14;;;;;;;2.37;2.17;;;24.80;55.50;;;;;;5001164;28;20209;-86
2022/05/12 03:11:40;;;;;;;2.53;2.33;;;24.80;55.50;;;;;;4997937;28;20208;-88
2022/05/12 03:14:06;;;;;;;2.73;2.53;;;24.80;56.00;;;;;;4982746;28;20202;-87
2022/05/12 03:16:32;;;;;;;2.80;2.50;;;24.80;55.50;;;;;;4981600;28;20602;-87
2022/05/12 03:18:58;;;;;;;2.67;2.47;;;24.80;55.50;;;;;;4983567;28;20547;-87
2022/05/12 03:21:26;;;;;;;3.10;2.80;;;24.80;55.50;;;;;;4981878;28;20465;-87
2022/05/12 03:23:52;;;;;;;2.30;2.10;;;24.80;55.50;;;;;;4982479;28;20410;-87
2022/05/12 03:26:19;;;;;;;2.33;2.10;;;24.80;55.50;;;;;;4981275;28;20421;-88
2022/05/12 03:28:44;;;;;;;2.80;2.60;;;24.80;55.50;;;;;;4982950;28;20405;-87
2022/05/12 03:31:10;;;;;;;2.43;2.23;;;24.80;55.50;;;;;;4983086;28;20413;-87
2022/05/12 03:33:37;;;;;;;2.53;2.33;;;24.80;55.50;;;;;;4982202;28;20170;-88
2022/05/12 03:36:04;;;;;;;2.50;2.30;;;24.80;55.50;;;;;;4981225;28;20437;-87
2022/05/12 03:38:30;;;;;;;2.97;2.57;;;24.80;55.50;;;;;;4981484;28;20421;-87
2022/05/12 03:40:56;;;;;;;2.67;2.47;;;24.80;55.50;;;;;;4984138;28;20505;-87
2022/05/12 03:46:44;;;;;;;2.77;2.33;;;24.80;55.50;;;;;;4987279;28;20713;-87
2022/05/12 03:49:09;;;;;;;2.90;2.57;;;24.80;55.50;;;;;;4988124;28;20433;-87
2022/05/12 03:51:35;;;;;;;2.40;2.17;;;24.80;55.50;;;;;;4985384;28;20193;-87
2022/05/12 03:54:03;;;;;;;2.60;2.37;;;24.80;55.50;;;;;;4983879;28;20635;-87
2022/05/12 03:56:30;;;;;;;2.40;2.20;;;24.80;55.50;;;;;;4987838;28;20185;-87
2022/05/12 03:58:56;;;;;;;2.13;2.00;;;24.80;55.50;;;;;;5003405;28;20796;-87
2022/05/12 04:04:46;;;;;;;2.30;2.10;;;24.80;55.50;;;;;;5005169;28;20381;-86
2022/05/12 04:07:14;;;;;;;2.70;2.37;;;24.80;55.50;;;;;;5003845;28;20447;-86
2022/05/12 04:09:40;;;;;;;2.30;2.10;;;24.80;55.50;;;;;;5010706;28;20452;-86
2022/05/12 04:12:09;;;;;;;2.50;2.30;;;24.80;55.50;;;;;;4984685;28;20417;-86
2022/05/12 04:14:39;;;;;;;2.30;2.10;;;24.80;55.50;;;;;;4988544;28;20178;-86
2022/05/12 04:17:10;;;;;;;2.70;2.50;;;24.80;55.50;;;;;;4986256;28;20393;-86
2022/05/12 04:19:37;;;;;;;2.50;2.30;;;24.80;55.50;;;;;;4985877;28;20413;-87
2022/05/12 04:22:04;;;;;;;2.63;2.43;;;24.80;55.50;;;;;;4984713;28;20432;-86
2022/05/12 04:24:30;;;;;;;2.37;2.17;;;24.80;55.50;;;;;;4984509;28;20417;-86
2022/05/12 04:26:56;;;;;;;2.47;2.27;;;24.80;55.50;;;;;;4986365;28;20888;-86
2022/05/12 04:29:25;;;;;;;2.60;2.40;;;24.80;55.50;;;;;;4986402;28;20421;-89
2022/05/12 04:31:51;;;;;;;2.03;1.83;;;24.80;55.50;;;;;;4987494;28;20220;-86
2022/05/12 04:37:02;;;;;;;2.57;2.17;;;24.80;55.50;;;;;;5005273;28;20400;-86
2022/05/12 04:39:29;;;;;;;2.10;2.00;;;24.80;55.50;;;;;;5005058;28;20412;-87
2022/05/12 04:41:56;;;;;;;2.87;2.63;;;24.80;55.50;;;;;;5002404;28;21004;-87
2022/05/12 04:44:22;;;;;;;2.30;2.10;;;24.80;55.50;;;;;;4983643;28;20438;-88
2022/05/12 04:46:49;;;;;;;2.80;2.50;;;24.80;55.50;;;;;;4985729;28;20460;-88
2022/05/12 04:49:15;;;;;;;2.30;2.10;;;24.80;55.50;;;;;;4985590;28;20184;-88
2022/05/12 04:51:41;;;;;;;2.70;2.50;;;24.80;55.50;;;;;;4984325;28;20863;-86
2022/05/12 04:54:09;;;;;;;2.50;2.30;;;24.90;55.60;;;;;;4984718;28;20189;-87
2022/05/12 04:56:38;;;;;;;2.50;2.27;;;24.80;55.50;;;;;;4988851;28;20455;-85
2022/05/12 04:59:06;;;;;;;2.50;2.10;;;24.80;55.50;;;;;;4988131;28;20500;-86
2022/05/12 05:01:32;;;;;;;2.77;2.20;;;24.90;55.60;;;;;;4988075;28;20456;-87
2022/05/12 05:04:00;;;;;;;2.63;2.40;;;24.80;55.50;;;;;;5005576;28;20452;-87
2022/05/12 05:06:27;;;;;;;2.60;2.40;;;24.90;55.70;;;;;;5006833;28;20425;-87
2022/05/12 05:08:54;;;;;;;2.90;2.23;;;24.90;55.60;;;;;;5007193;28;20417;-87
2022/05/12 05:11:20;;;;;;;2.80;2.60;;;24.90;55.60;;;;;;5007696;28;20431;-87
2022/05/12 05:13:53;;;;;;;2.63;2.43;;;24.90;55.60;;;;;;5007237;28;20440;-87
2022/05/12 05:16:19;;;;;;;2.93;2.40;;;24.90;55.60;;;;;;5006288;28;20423;-86
2022/05/12 05:18:47;;;;;;;2.60;2.40;;;24.90;55.60;;;;;;5006669;28;20424;-86
2022/05/12 05:21:13;;;;;;;2.97;2.30;;;24.90;55.70;;;;;;5007942;28;20456;-86
2022/05/12 05:23:42;;;;;;;2.40;2.20;;;24.80;55.50;;;;;;5006389;28;20428;-87
2022/05/12 05:26:08;;;;;;;2.83;2.63;;;24.90;55.60;;;;;;5006570;28;20192;-86
2022/05/12 05:28:36;;;;;;;2.23;2.03;;;24.90;55.60;;;;;;5006272;28;20425;-86
2022/05/12 05:31:03;;;;;;;2.30;1.97;;;24.90;55.70;;;;;;5026035;28;20424;-86
2022/05/12 05:33:28;;;;;;;2.33;2.13;;;24.90;55.60;;;;;;5018359;28;20445;-86
2022/05/12 05:35:54;;;;;;;1.83;1.73;;;24.90;55.70;;;;;;4991847;28;20436;-86
2022/05/12 05:38:20;;;;;;;2.87;2.43;;;24.90;55.60;;;;;;4988645;28;20182;-86
2022/05/12 05:41:29;;;;;;;2.37;2.17;;;24.90;55.60;;;;;;4995844;28;20201;-85
2022/05/12 05:43:55;;;;;;;2.80;2.10;;;24.90;55.60;;;;;;5006788;28;20195;-85
2022/05/12 05:46:21;;;;;;;3.50;2.17;;;24.90;55.70;;;;;;5010733;28;20436;-87
2022/05/12 05:48:50;;;;;;;2.30;2.10;;;24.90;55.70;;;;;;4991208;28;20416;-86
2022/05/12 05:54:00;;;;;;;2.50;2.30;;;24.90;55.70;;;;;;5000412;28;20400;-86
2022/05/12 05:56:26;;;;;;;2.20;2.00;;;24.90;55.70;;;;;;4987605;28;20417;-86
2022/05/12 05:59:02;;;;;;;2.30;2.10;;;24.90;55.70;;;;;;4989798;28;20852;-87
2022/05/12 06:01:37;;;;;;;2.30;2.10;;;24.90;55.70;;;;;;4991560;28;20204;-86
2022/05/12 06:04:03;;;;;;;2.57;2.37;;;24.90;55.70;;;;;;4998354;28;20476;-85
2022/05/12 06:06:29;;;;;;;2.67;2.00;;;24.90;55.70;;;;;;4998827;28;20412;-85
2022/05/12 06:08:58;;;;;;;2.90;2.17;;;24.90;55.70;;;;;;4998802;28;20424;-85
2022/05/12 06:11:25;;;;;;;3.10;2.30;;;24.90;55.60;;;;;;4997920;28;20181;-85
2022/05/12 06:13:51;;;;;;;2.10;1.90;;;24.90;55.70;;;;;;4998083;28;20459;-86
2022/05/12 06:16:17;;;;;;;2.20;2.00;;;24.90;55.60;;;;;;4996353;28;20467;-85
2022/05/12 06:18:43;;;;;;;2.10;1.90;;;24.90;55.60;;;;;;4999047;28;20196;-85
2022/05/12 06:21:12;;;;;;;2.50;2.30;;;24.90;55.60;;;;;;4994620;28;20860;-87
2022/05/12 06:23:38;;;;;;;2.50;2.30;;;24.90;55.60;;;;;;4997850;28;20428;-86
2022/05/12 06:26:09;;;;;;;2.83;2.00;;;24.90;55.70;;;;;;4995870;28;20440;-87
2022/05/12 06:28:35;;;;;;;2.40;2.20;;;24.90;55.60;;;;;;4997802;28;20424;-86
2022/05/12 06:31:01;;;;;;;2.80;2.60;;;24.90;55.60;;;;;;4995776;28;20491;-86
2022/05/12 06:36:51;;;;;;;2.27;2.07;;;24.90;55.70;;;;;;4997593;28;20392;-86
2022/05/12 06:39:25;;;;;;;2.03;1.83;;;24.90;55.70;;;;;;4995466;28;20986;-86
2022/05/12 06:41:51;;;;;;;2.67;2.47;;;24.90;55.70;;;;;;4996945;28;20542;-86
2022/05/12 06:44:20;;;;;;;2.40;2.20;;;24.90;55.70;;;;;;4996722;28;20464;-86
2022/05/12 06:46:45;;;;;;;2.40;2.20;;;24.90;55.80;;;;;;4997255;28;20444;-86
2022/05/12 06:49:11;;;;;;;2.63;2.07;;;24.90;55.80;;;;;;4993559;28;20471;-86
2022/05/12 06:51:47;;;;;;;4.77;2.20;;;24.90;55.80;;;;;;4998247;28;20185;-86
2022/05/12 06:54:22;;;;;;;2.37;2.17;;;24.90;55.80;;;;;;5003283;28;20193;-86
2022/05/12 06:56:48;;;;;;;2.57;2.37;;;24.90;55.80;;;;;;5027744;28;20518;-86
2022/05/12 06:59:17;;;;;;;2.20;2.00;;;24.90;55.80;;;;;;4994922;28;20425;-86
2022/05/12 07:01:45;;;;;;;2.10;1.90;;;24.90;55.80;;;;;;4996212;28;20494;-86
2022/05/12 07:04:11;;;;;;;2.90;2.33;;;24.90;55.80;;;;;;4993479;28;20435;-86
2022/05/12 07:10:04;;;;;;;2.70;2.50;;;24.90;55.90;;;;;;5003112;28;20594;-85
2022/05/12 07:12:32;;;;;;;2.33;2.13;;;24.90;55.90;;;;;;5003165;28;20492;-86
2022/05/12 07:14:59;;;;;;;2.20;2.00;;;24.90;55.90;;;;;;5003297;28;20911;-85
2022/05/12 07:17:25;;;;;;;3.30;2.90;;;24.90;56.00;;;;;;5006983;28;20423;-86
2022/05/12 07:26:34;;;;;;;2.00;1.80;;;24.90;55.90;;;;;;5006570;28;20501;-85
2022/05/12 07:28:09;;;;;;;2.47;2.27;;;24.90;56.00;;;;;;5007041;28;20419;-85
2022/05/12 07:31:00;;;;;;;2.33;2.13;;;24.90;56.00;;;;;;5006377;28;20424;-85
2022/05/12 07:36:50;;;;;;;2.63;2.17;;;24.90;56.00;;;;;;5002540;28;20484;-86
2022/05/12 07:39:17;;;;;;;2.40;2.20;;;24.90;56.60;;;;;;5011079;28;20428;-85
2022/05/12 07:41:42;;;;;;;2.53;2.27;;;24.90;56.10;;;;;;5005220;28;20498;-85
2022/05/12 07:44:17;;;;;;;2.13;1.93;;;24.90;56.10;;;;;;5006341;28;20417;-86
2022/05/12 07:46:43;;;;;;;2.13;1.93;;;24.90;56.10;;;;;;5002600;28;20657;-85
2022/05/12 07:49:09;;;;;;;2.30;2.10;;;24.90;56.10;;;;;;4993568;28;20432;-86
2022/05/12 07:51:40;;;;;;;2.40;2.20;;;24.90;56.10;;;;;;4985996;28;20938;-85
2022/05/12 07:54:06;;;;;;;2.77;2.33;;;25.00;56.20;;;;;;4987128;28;20437;-85
2022/05/12 07:56:32;;;;;;;2.43;2.23;;;24.90;56.10;;;;;;4986567;28;20509;-86
2022/05/12 07:58:59;;;;;;;2.53;2.33;;;25.00;56.20;;;;;;4985611;28;20429;-86
2022/05/12 08:01:26;;;;;;;2.30;2.10;;;25.00;56.20;;;;;;5001994;28;20690;-85
2022/05/12 08:03:53;;;;;;;2.00;1.80;;;25.00;56.20;;;;;;4985354;28;20475;-85
2022/05/12 08:06:22;;;;;;;2.17;1.97;;;25.00;56.20;;;;;;4987076;28;20843;-85
2022/05/12 08:08:50;;;;;;;2.37;2.00;;;25.00;56.20;;;;;;4985763;28;20508;-85
2022/05/12 08:11:19;;;;;;;2.20;1.97;;;25.00;56.20;;;;;;4985497;28;20425;-85
2022/05/12 08:13:47;;;;;;;2.63;2.33;;;25.00;56.20;;;;;;4985569;28;20425;-86
2022/05/12 08:16:23;;;;;;;2.23;1.90;;;25.00;56.20;;;;;;4985979;28;20504;-86
2022/05/12 08:18:50;;;;;;;2.33;1.93;;;25.00;56.20;;;;;;4987141;28;20801;-86
2022/05/12 08:21:19;;;;;;;2.07;1.90;;;25.00;56.20;;;;;;4986705;28;20465;-86
2022/05/12 08:23:47;;;;;;;2.20;2.00;;;25.00;56.20;;;;;;4985645;28;20417;-86
2022/05/12 08:26:20;;;;;;;2.30;2.10;;;25.00;56.20;;;;;;4984956;28;20428;-84
2022/05/12 08:28:49;;;;;;;2.43;2.23;;;25.00;56.20;;;;;;5002997;28;20409;-85
2022/05/12 08:31:15;;;;;;;2.33;2.13;;;25.00;56.20;;;;;;4985756;28;20421;-85
2022/05/12 08:33:41;;;;;;;2.33;2.00;;;25.00;56.20;;;;;;4986921;28;20440;-86
2022/05/12 08:36:10;;;;;;;2.17;1.97;;;25.00;56.80;;;;;;4986160;28;20245;-86
2022/05/12 08:38:48;;;;;;;2.20;2.00;;;25.00;56.20;;;;;;4986392;28;20587;-85
2022/05/12 08:41:26;;;;;;;2.00;1.90;;;25.00;56.20;;;;;;4986159;28;20449;-85
2022/05/12 08:44:01;;;;;;;2.03;1.80;;;25.00;56.20;;;;;;4987165;28;20386;-85
2022/05/12 08:46:38;;;;;;;1.87;1.77;;;25.00;56.20;;;;;;4985665;28;20417;-85
2022/05/12 08:49:20;;;;;;;2.27;2.07;;;25.00;56.20;;;;;;4986404;28;20420;-86
2022/05/12 08:51:56;;;;;;;2.20;2.00;;;25.00;56.30;;;;;;4985782;28;20508;-85
2022/05/12 08:54:34;;;;;;;2.03;1.93;;;25.00;56.30;;;;;;4985285;28;20835;-86
2022/05/12 08:57:04;;;;;;;2.00;1.80;;;25.00;56.30;;;;;;4986412;28;20432;-86
2022/05/12 08:59:32;;;;;;;2.33;2.10;;;25.00;56.30;;;;;;4985653;28;20885;-86
2022/05/12 09:02:08;;;;;;;2.10;1.90;;;25.00;56.30;;;;;;4986716;28;20453;-86
2022/05/12 09:04:40;;;;;;;1.87;1.73;;;25.00;56.30;;;;;;4986190;28;20437;-85
2022/05/12 09:07:09;;;;;;;2.53;2.33;;;25.00;56.30;;;;;;4985656;28;20911;-86
2022/05/12 09:09:46;;;;;;;2.73;1.77;;;25.00;56.30;;;;;;4985413;28;20495;-86
2022/05/12 09:12:31;;;;;;;2.00;1.80;;;25.00;56.30;;;;;;4986984;28;20402;-86
2022/05/12 09:15:11;;;;;;;2.80;2.50;;;25.00;56.30;;;;;;4985153;28;20414;-86
2022/05/12 09:17:45;;;;;;;2.30;2.13;;;25.00;56.30;;;;;;4985090;28;20588;-86
2022/05/12 09:20:12;;;;;;;1.97;1.73;;;25.00;56.30;;;;;;4986341;28;20449;-87
2022/05/12 09:22:41;;;;;;;2.37;2.17;;;25.00;56.30;;;;;;4985026;28;20424;-86
2022/05/12 09:25:08;;;;;;;1.70;1.60;;;25.00;56.30;;;;;;4986008;28;20477;-86
2022/05/12 09:27:40;;;;;;;2.13;1.93;;;25.00;56.30;;;;;;4992395;28;20420;-86
2022/05/12 09:30:09;;;;;;;2.40;2.10;;;25.00;56.90;;;;;;5003981;28;20431;-86
2022/05/12 09:32:38;;;;;;;2.13;1.93;;;25.00;56.30;;;;;;5005074;28;20437;-86
2022/05/12 09:35:04;;;;;;;1.87;1.67;;;25.00;56.30;;;;;;5003913;28;20488;-86
2022/05/12 09:37:30;;;;;;;1.93;1.77;;;25.00;56.30;;;;;;5004752;28;20489;-86
2022/05/12 09:40:00;;;;;;;2.27;2.07;;;25.00;56.30;;;;;;5003508;28;20177;-85
2022/05/12 09:42:31;;;;;;;2.00;1.80;;;25.00;56.30;;;;;;5005494;28;20392;-85
2022/05/12 09:45:00;;;;;;;2.10;1.90;;;25.00;56.30;;;;;;5003853;28;20421;-85
2022/05/12 09:47:28;;;;;;;2.27;2.07;;;25.00;56.30;;;;;;4999962;28;20462;-84
2022/05/12 09:50:16;;;;;;;2.57;2.37;;;25.00;56.30;;;;;;4984790;28;20409;-85
2022/05/12 09:52:58;;;;;;;2.20;2.00;;;25.00;56.30;;;;;;4984672;28;20421;-87
2022/05/12 09:55:37;;;;;;;1.87;1.63;;;25.00;56.30;;;;;;4984908;28;20424;-87
2022/05/12 09:58:25;;;;;;;2.20;1.97;;;25.00;56.30;;;;;;4984445;28;20409;-86
2022/05/12 10:01:18;;;;;;;2.53;2.03;;;25.00;56.30;;;;;;4985348;28;20461;-87
2022/05/12 10:09:29;;;;;;;2.00;1.80;;;25.00;56.40;;;;;;4985157;28;20473;-86
2022/05/12 10:12:13;;;;;;;1.73;1.63;;;25.00;56.40;;;;;;4985883;28;20394;-86
2022/05/12 10:15:00;;;;;;;1.87;1.60;;;25.00;56.40;;;;;;4985618;28;20409;-85
2022/05/12 10:17:33;;;;;;;2.30;2.00;;;25.00;56.40;;;;;;4985556;28;20488;-85
2022/05/12 10:20:10;;;;;;;2.60;2.40;;;25.00;56.50;;;;;;4984836;28;20409;-85
2022/05/12 10:22:47;;;;;;;2.20;2.00;;;25.00;56.40;;;;;;4984345;28;20417;-85
2022/05/12 10:25:42;;;;;;;2.20;2.00;;;25.00;56.40;;;;;;4984427;28;20412;-87
2022/05/12 10:28:44;;;;;;;1.90;1.70;;;25.00;56.40;;;;;;4984135;28;20414;-86
2022/05/12 10:31:12;;;;;;;1.90;1.80;;;25.00;56.40;;;;;;4985268;28;20443;-84
2022/05/12 10:34:12;;;;;;;2.23;1.80;;;25.00;56.50;;;;;;4999845;28;20444;-87
2022/05/12 10:37:12;;;;;;;2.27;2.07;;;25.00;56.50;;;;;;5004916;28;20486;-86
2022/05/12 10:39:43;;;;;;;1.90;1.80;;;25.00;56.50;;;;;;5004407;28;20452;-86
2022/05/12 10:42:15;;;;;;;2.23;2.03;;;25.00;56.50;;;;;;5004933;28;20451;-87
2022/05/12 10:45:05;;;;;;;2.23;2.03;;;25.00;56.50;;;;;;5005025;28;20467;-89
2022/05/12 10:48:04;;;;;;;3.80;3.30;;;25.00;56.50;;;;;;5003386;28;20443;-88
2022/05/12 10:50:44;;;;;;;4.20;3.60;;;25.00;56.50;;;;;;5005976;28;20416;-88
2022/05/12 10:53:21;;;;;;;5.87;5.27;;;25.00;56.50;;;;;;5006310;28;20409;-88
2022/05/12 10:56:08;;;;;;;7.60;5.13;;;25.00;56.50;;;;;;5008316;28;20400;-88
2022/05/12 10:59:20;;;;;;;9.00;5.00;;;25.00;56.50;;;;;;5006561;28;20444;-87
2022/05/12 11:02:04;;;;;;;;;;;;;;;;;;;;;
2022/05/12 11:04:47;;;;;;;10.40;5.67;;;25.00;56.60;;;;;;5088670;28;20484;-87
2022/05/12 11:07:56;;;;;;;6.93;4.90;;;25.00;56.60;;;;;;5072018;28;20503;-88
2022/05/12 11:10:44;;;;;;;7.63;5.03;;;25.00;56.60;;;;;;5072348;28;20936;-88
2022/05/12 11:14:09;;;;;;;6.47;4.60;;;25.00;56.70;;;;;;5088052;28;20478;-88
2022/05/12 11:17:20;;;;;;;10.23;6.00;;;25.00;56.70;;;;;;4998495;28;20451;-87
2022/05/12 11:20:02;;;;;;;12.67;4.70;;;25.00;56.80;;;;;;5067388;28;20420;-87
2022/05/12 11:23:01;;;;;;;9.80;5.47;;;25.00;56.90;;;;;;5072427;28;20424;-87
2022/05/12 11:25:34;;;;;;;6.93;5.03;;;25.00;57.00;;;;;;5071963;28;20868;-87
2022/05/12 11:31:53;;;;;;;6.23;4.67;;;25.00;57.00;;;;;;5088006;28;20434;-88
2022/05/12 11:34:24;;;;;;;7.17;4.83;;;25.00;57.00;;;;;;5052088;28;20424;-88
2022/05/12 11:37:11;;;;;;;5.70;4.17;;;25.00;57.10;;;;;;5071476;28;20454;-88
2022/05/12 11:39:42;;;;;;;7.20;5.00;;;25.00;57.10;;;;;;5017396;28;20875;-87
2022/05/12 11:42:17;;;;;;;7.13;4.03;;;25.00;57.10;;;;;;5006930;28;20460;-87
2022/05/12 11:44:57;;;;;;;9.07;4.83;;;25.00;57.20;;;;;;5006945;28;20408;-86
2022/05/12 11:48:00;;;;;;;9.60;4.70;;;25.00;57.10;;;;;;5005730;28;20436;-88
2022/05/12 11:50:40;;;;;;;7.30;4.60;;;25.00;57.10;;;;;;5005911;28;20446;-87
2022/05/12 11:53:12;;;;;;;6.83;4.57;;;25.00;57.10;;;;;;5006489;28;20535;-87
2022/05/12 11:56:13;;;;;;;8.80;4.80;;;25.00;57.10;;;;;;5005654;28;20440;-87
2022/05/12 11:58:43;;;;;;;7.03;4.00;;;25.10;57.20;;;;;;5006864;28;20416;-88
2022/05/12 12:01:27;;;;;;;5.47;4.17;;;25.00;57.10;;;;;;5006255;28;20491;-87
2022/05/12 12:04:06;;;;;;;7.03;4.33;;;25.10;57.10;;;;;;5005352;28;20835;-87
2022/05/12 12:06:52;;;;;;;7.23;4.50;;;25.10;57.10;;;;;;5006548;28;20483;-87
2022/05/12 12:09:39;;;;;;;6.20;5.03;;;25.10;57.10;;;;;;4988666;28;20422;-87
2022/05/12 12:12:08;;;;;;;8.97;3.80;;;25.10;57.10;;;;;;4987492;28;20409;-87
2022/05/12 12:14:43;;;;;;;6.60;4.27;;;25.00;57.00;;;;;;4987307;28;20429;-87
2022/05/12 12:17:33;;;;;;;8.03;3.73;;;25.10;57.10;;;;;;4985775;28;20431;-87
2022/05/12 12:20:31;;;;;;;6.90;3.87;;;25.10;57.00;;;;;;4986492;28;20413;-87
2022/05/12 12:23:29;;;;;;;6.20;4.53;;;25.10;57.10;;;;;;4987317;28;20781;-86
2022/05/12 12:26:05;;;;;;;5.77;4.13;;;25.10;57.10;;;;;;4986237;28;20417;-86
2022/05/12 12:28:59;;;;;;;4.47;3.23;;;25.10;57.10;;;;;;4986364;28;20436;-87
2022/05/12 12:31:55;;;;;;;6.50;4.37;;;25.10;57.10;;;;;;4986536;28;20439;-87
2022/05/12 12:34:33;;;;;;;7.07;3.80;;;25.10;57.10;;;;;;4986716;28;20421;-87
2022/05/12 12:37:13;;;;;;;4.93;3.67;;;25.10;57.10;;;;;;4987144;28;20500;-86
2022/05/12 12:40:31;;;;;;;5.30;3.73;;;25.10;57.10;;;;;;4969972;28;20425;-87
2022/05/12 12:43:13;;;;;;;4.73;3.53;;;25.10;57.10;;;;;;4985721;28;20445;-89
2022/05/12 12:46:01;;;;;;;5.67;3.93;;;25.10;57.10;;;;;;4986743;28;20469;-87
2022/05/12 12:48:45;;;;;;;5.57;3.70;;;25.00;57.00;;;;;;4986464;28;20463;-86
2022/05/12 12:51:12;;;;;;;6.50;3.70;;;25.00;57.00;;;;;;4986396;28;20477;-86
2022/05/12 12:57:08;;;;;;;5.90;3.30;;;25.10;57.00;;;;;;4986055;28;20791;-88
2022/05/12 12:59:42;;;;;;;4.93;3.40;;;25.10;57.10;;;;;;4986758;28;20400;-86
2022/05/12 13:02:20;;;;;;;6.83;3.73;;;25.10;57.10;;;;;;4985099;28;20471;-87
2022/05/12 13:04:54;;;;;;;8.57;4.07;;;25.10;57.10;;;;;;4984905;28;20903;-87
2022/05/12 13:07:26;;;;;;;5.93;3.67;;;25.10;57.10;;;;;;4985025;28;20401;-86
2022/05/12 13:09:54;;;;;;;5.20;3.50;;;25.10;57.10;;;;;;4985054;28;20429;-87
2022/05/12 13:12:23;;;;;;;6.97;2.90;;;25.10;57.10;;;;;;4985297;28;20413;-86
2022/05/12 13:14:53;;;;;;;5.60;3.50;;;25.10;57.10;;;;;;4984224;28;20425;-88
2022/05/12 13:17:36;;;;;;;5.10;3.50;;;25.10;57.10;;;;;;4984349;28;20430;-88
2022/05/12 13:20:04;;;;;;;5.37;3.70;;;25.10;57.10;;;;;;4985340;28;20450;-88
2022/05/12 13:22:37;;;;;;;4.60;3.37;;;25.10;57.10;;;;;;4986071;28;20504;-85
2022/05/12 13:25:09;;;;;;;5.30;4.23;;;25.10;57.20;;;;;;4984317;28;20474;-87
2022/05/12 13:27:38;;;;;;;4.40;3.90;;;25.10;57.10;;;;;;4985034;28;20436;-87
2022/05/12 13:30:19;;;;;;;4.70;3.57;;;25.10;57.10;;;;;;4983980;28;20417;-87
2022/05/12 13:32:50;;;;;;;5.13;4.10;;;25.10;57.10;;;;;;4984172;28;20436;-87
2022/05/12 13:35:26;;;;;;;3.53;3.10;;;25.10;57.10;;;;;;4983798;28;20413;-88
2022/05/12 13:38:15;;;;;;;4.37;3.10;;;25.10;57.10;;;;;;4984628;28;20420;-87
2022/05/12 13:40:46;;;;;;;5.37;3.47;;;25.10;57.00;;;;;;4986689;28;20452;-86
2022/05/12 13:43:38;;;;;;;5.63;3.10;;;25.10;57.10;;;;;;4994973;28;20919;-87
2022/05/12 13:46:16;;;;;;;4.50;3.17;;;25.10;57.10;;;;;;4980199;28;20486;-87
2022/05/12 13:49:04;;;;;;;5.87;3.40;;;25.10;57.10;;;;;;4985965;28;20424;-89
2022/05/12 13:51:51;;;;;;;5.00;3.37;;;25.10;57.10;;;;;;4986234;28;20473;-89
2022/05/12 13:54:31;;;;;;;5.20;3.53;;;25.10;57.10;;;;;;5001637;28;20413;-89
2022/05/12 13:57:42;;;;;;;3.90;3.50;;;25.10;57.10;;;;;;5001388;28;20409;-89